Time;durP1;ratioP1;P1;durP2;ratioP2;P2;SDS_P1;SDS_P2;PMS_P1;PMS_P2;Temp;Humidity;BMP_temperature;BMP_pressure;BME280_temperature;BME280_humidity;BME280_pressure;Samples;Min_cycle;Max_cycle;Signal;HPM_P1;HPM_P2
2020/12/03 00:01:53;;;;;;;1.13;1.03;;;;;;;-0.41;92.40;100839.22;5036971;28;20459;-70
2020/12/03 00:04:19;;;;;;;3.87;2.00;;;;;;;-0.38;92.39;100843.28;5036899;28;20892;-70
2020/12/03 00:06:52;;;;;;;4.88;1.00;;;;;;;-0.42;92.21;100836.78;5036936;28;20439;-70
2020/12/03 00:09:20;;;;;;;3.60;2.00;;;;;;;-0.42;92.25;100824.28;5036709;28;20301;-70
2020/12/03 00:11:51;;;;;;;5.33;3.37;;;;;;;-0.56;92.42;100820.97;5036777;28;20278;-70
2020/12/03 00:14:18;;;;;;;3.80;1.45;;;;;;;-0.47;92.29;100824.16;5036466;28;20528;-70
2020/12/03 00:16:46;;;;;;;0.60;0.60;;;;;;;-0.53;92.95;100822.41;5036410;28;20266;-70
2020/12/03 00:19:13;;;;;;;2.28;0.85;;;;;;;-0.52;92.94;100826.66;5036725;28;20247;-70
2020/12/03 00:21:42;;;;;;;7.43;2.53;;;;;;;-0.52;93.29;100824.81;5036260;28;20246;-70
2020/12/03 00:24:10;;;;;;;3.90;1.70;;;;;;;-0.57;93.80;100823.88;5036536;28;20220;-70
2020/12/03 00:26:37;;;;;;;1.80;1.70;;;;;;;-0.54;93.75;100831.38;5036218;28;20882;-70
2020/12/03 00:29:05;;;;;;;1.60;1.37;;;;;;;-0.49;93.19;100820.88;5036222;28;20537;-70
2020/12/03 00:31:31;;;;;;;1.27;1.17;;;;;;;-0.51;93.18;100822.97;5036155;28;20471;-71
2020/12/03 00:33:58;;;;;;;1.07;0.90;;;;;;;-0.53;92.92;100831.19;5036433;28;20496;-70
2020/12/03 00:36:25;;;;;;;2.10;1.90;;;;;;;-0.54;93.05;100842.84;5036311;28;20935;-70
2020/12/03 00:38:51;;;;;;;0.47;0.40;;;;;;;-0.53;93.33;100833.84;5036351;28;20486;-70
2020/12/03 00:41:19;;;;;;;9.83;2.60;;;;;;;-0.53;92.99;100831.19;5036004;28;20205;-70
2020/12/03 00:43:45;;;;;;;2.00;1.90;;;;;;;-0.51;93.22;100828.28;5035811;28;20487;-70
2020/12/03 00:46:13;;;;;;;1.43;1.10;;;;;;;-0.54;93.24;100826.06;5036238;28;20205;-70
2020/12/03 00:48:39;;;;;;;3.80;2.08;;;;;;;-0.53;93.28;100825.84;5035860;28;20932;-71
2020/12/03 00:51:05;;;;;;;0.95;0.93;;;;;;;-0.53;92.76;100828.53;5036163;28;20250;-70
2020/12/03 00:53:32;;;;;;;1.10;1.00;;;;;;;-0.56;92.34;100822.81;5035707;28;20221;-70
2020/12/03 00:55:58;;;;;;;0.85;0.80;;;;;;;-0.58;92.66;100822.22;5036050;28;20439;-70
2020/12/03 00:58:24;;;;;;;1.17;1.07;;;;;;;-0.63;92.83;100825.53;5034631;28;20204;-70
2020/12/03 01:00:51;;;;;;;5.80;3.07;;;;;;;-0.65;91.85;100816.19;5035969;28;20493;-70
2020/12/03 01:03:18;;;;;;;0.95;0.63;;;;;;;-0.63;91.83;100812.25;5035560;28;20482;-70
2020/12/03 01:05:44;;;;;;;0.95;0.95;;;;;;;-0.66;92.27;100795.94;5035932;28;20238;-70
2020/12/03 01:08:10;;;;;;;0.52;0.52;;;;;;;-0.70;91.44;100790.25;5035805;28;20200;-70
2020/12/03 01:10:36;;;;;;;0.50;0.40;;;;;;;-0.66;91.72;100782.63;5035659;28;20253;-70
2020/12/03 01:13:05;;;;;;;0.50;0.50;;;;;;;-0.70;91.56;100781.47;5035621;28;20533;-71
2020/12/03 01:15:31;;;;;;;2.13;2.03;;;;;;;-0.70;91.65;100784.94;5035634;28;20232;-70
2020/12/03 01:17:58;;;;;;;0.63;0.57;;;;;;;-0.68;91.21;100790.00;5035623;28;20960;-70
2020/12/03 01:20:27;;;;;;;2.08;1.10;;;;;;;-0.72;91.67;100784.31;5035255;28;20205;-70
2020/12/03 01:22:53;;;;;;;2.13;2.03;;;;;;;-0.69;90.97;100783.06;5035100;28;20268;-70
2020/12/03 01:25:22;;;;;;;0.70;0.70;;;;;;;-0.67;90.51;100775.66;5035454;28;20204;-71
2020/12/03 01:27:48;;;;;;;1.60;1.53;;;;;;;-0.67;90.54;100773.00;5035438;28;20435;-71
2020/12/03 01:30:15;;;;;;;1.70;1.50;;;;;;;-0.73;90.38;100765.94;5035368;28;20521;-70
2020/12/03 01:32:41;;;;;;;3.58;3.38;;;;;;;-0.76;91.81;100765.31;5035549;28;20217;-71
2020/12/03 01:35:10;;;;;;;1.73;1.63;;;;;;;-0.77;91.36;100754.91;5034997;28;20205;-70
2020/12/03 01:37:38;;;;;;;1.40;1.33;;;;;;;-0.80;92.76;100748.22;5034960;28;20740;-69
2020/12/03 01:40:06;;;;;;;3.60;1.70;;;;;;;-0.81;92.70;100749.22;5034947;28;20466;-69
2020/12/03 01:42:32;;;;;;;3.43;3.23;;;;;;;-0.82;92.22;100741.47;5035117;28;20513;-69
2020/12/03 01:44:58;;;;;;;2.87;2.77;;;;;;;-0.84;92.87;100725.75;5035022;28;20479;-69
2020/12/03 01:47:31;;;;;;;0.63;0.63;;;;;;;-0.87;93.14;100739.50;5035119;28;20487;-69
2020/12/03 01:49:57;;;;;;;1.88;1.10;;;;;;;-0.85;92.35;100723.31;5034749;28;20458;-69
2020/12/03 01:52:23;;;;;;;1.10;1.10;;;;;;;-0.83;92.81;100716.75;5034610;28;20794;-69
2020/12/03 01:54:51;;;;;;;6.13;3.00;;;;;;;-0.82;93.13;100715.69;5034937;28;20489;-69
2020/12/03 01:57:36;;;;;;;31.65;2.95;;;;;;;-0.80;93.09;100718.97;5034559;28;20258;-69
2020/12/03 02:00:09;;;;;;;0.40;0.30;;;;;;;-0.78;93.06;100708.91;5034579;28;20188;-69
2020/12/03 02:02:35;;;;;;;1.48;1.25;;;;;;;-0.72;92.86;100704.53;5034721;28;20463;-69
2020/12/03 02:05:15;;;;;;;2.45;2.25;;;;;;;-0.76;92.52;100703.34;5034358;28;20264;-69
2020/12/03 02:07:42;;;;;;;0.40;0.30;;;;;;;-0.76;92.98;100698.03;5034678;28;20270;-69
2020/12/03 02:10:10;;;;;;;11.73;2.05;;;;;;;-0.81;93.02;100684.59;5033927;28;20216;-69
2020/12/03 02:12:37;;;;;;;0.50;0.45;;;;;;;-0.80;93.29;100683.56;5034662;28;20228;-69
2020/12/03 02:15:06;;;;;;;1.05;0.68;;;;;;;-0.80;92.54;100679.09;5034548;28;20201;-69
2020/12/03 02:17:32;;;;;;;0.70;0.70;;;;;;;-0.79;92.03;100664.75;5034567;28;20259;-69
2020/12/03 02:19:59;;;;;;;0.60;0.60;;;;;;;-0.82;91.39;100651.09;5034495;28;20205;-69
2020/12/03 02:22:26;;;;;;;6.85;1.20;;;;;;;-0.86;91.73;100655.22;5034285;28;20713;-69
2020/12/03 02:24:52;;;;;;;1.25;1.00;;;;;;;-0.87;92.50;100654.41;5034290;28;20248;-68
2020/12/03 02:27:21;;;;;;;3.03;2.07;;;;;;;-0.81;93.32;100650.03;5034016;28;20743;-69
2020/12/03 02:29:48;;;;;;;2.60;1.53;;;;;;;-0.79;93.50;100645.31;5034288;28;20443;-70
2020/12/03 02:32:14;;;;;;;1.33;1.25;;;;;;;-0.73;93.08;100643.59;5034206;28;20455;-70
2020/12/03 02:34:40;;;;;;;1.27;1.20;;;;;;;-0.74;91.84;100642.00;5034164;28;20240;-69
2020/12/03 02:37:07;;;;;;;2.97;2.63;;;;;;;-0.72;91.67;100634.59;5033841;28;20470;-68
2020/12/03 02:39:35;;;;;;;0.67;0.67;;;;;;;-0.68;91.83;100635.75;5033786;28;20709;-68
2020/12/03 02:42:03;;;;;;;8.55;1.60;;;;;;;-0.71;91.06;100628.22;5033721;28;21075;-68
2020/12/03 02:44:29;;;;;;;1.43;1.33;;;;;;;-0.69;92.14;100624.31;5033660;28;20220;-68
2020/12/03 02:46:55;;;;;;;1.10;1.00;;;;;;;-0.70;91.58;100620.03;5033639;28;20834;-68
2020/12/03 02:49:22;;;;;;;0.70;0.70;;;;;;;-0.76;91.52;100624.38;5033922;28;20463;-68
2020/12/03 02:51:48;;;;;;;1.02;0.93;;;;;;;-0.74;91.67;100612.75;5033505;28;20713;-68
2020/12/03 02:54:15;;;;;;;24.27;2.22;;;;;;;-0.68;91.68;100609.16;5033569;28;20204;-68
2020/12/03 02:56:42;;;;;;;2.80;1.80;;;;;;;-0.70;91.49;100608.59;5033805;28;20243;-68
2020/12/03 02:59:12;;;;;;;5.10;4.57;;;;;;;-0.65;91.69;100609.53;5033478;28;20232;-68
2020/12/03 03:01:38;;;;;;;9.68;2.05;;;;;;;-0.69;91.07;100602.22;5033665;28;20243;-68
2020/12/03 03:04:05;;;;;;;1.43;1.17;;;;;;;-0.67;91.51;100600.16;5033338;28;20224;-68
2020/12/03 03:06:32;;;;;;;1.35;1.35;;;;;;;-0.69;91.47;100591.59;5033627;28;20474;-68
2020/12/03 03:08:59;;;;;;;0.40;0.40;;;;;;;-0.67;91.98;100589.50;5033210;28;20266;-68
2020/12/03 03:11:26;;;;;;;1.80;1.10;;;;;;;-0.74;92.10;100594.94;5033579;28;20252;-68
2020/12/03 03:13:52;;;;;;;1.67;1.58;;;;;;;-0.69;91.85;100591.59;5033473;28;20622;-68
2020/12/03 03:16:18;;;;;;;3.50;3.30;;;;;;;-0.65;91.52;100585.59;5033522;28;20204;-68
2020/12/03 03:18:45;;;;;;;3.17;2.87;;;;;;;-0.66;91.72;100596.47;5033470;28;20482;-68
2020/12/03 03:21:11;;;;;;;1.42;0.82;;;;;;;-0.61;91.65;100588.63;5032395;28;20459;-68
2020/12/03 03:23:37;;;;;;;0.63;0.60;;;;;;;-0.64;91.97;100589.06;5033004;28;20729;-68
2020/12/03 03:26:04;;;;;;;5.22;1.48;;;;;;;-0.61;91.70;100597.41;5033489;28;20493;-68
2020/12/03 03:28:31;;;;;;;0.80;0.80;;;;;;;-0.57;91.22;100592.44;5033258;28;20576;-68
2020/12/03 03:30:57;;;;;;;40.72;3.22;;;;;;;-0.57;91.11;100595.91;5033309;28;20293;-68
2020/12/03 03:33:23;;;;;;;4.40;2.35;;;;;;;-0.52;91.33;100593.38;5033249;28;20646;-68
2020/12/03 03:35:49;;;;;;;0.90;0.90;;;;;;;-0.51;91.32;100588.88;5033262;28;20208;-68
2020/12/03 03:38:16;;;;;;;2.80;2.00;;;;;;;-0.46;90.88;100582.84;5033267;28;20439;-68
2020/12/03 03:40:42;;;;;;;1.75;0.93;;;;;;;-0.50;90.90;100585.16;5032961;28;20678;-68
2020/12/03 03:43:08;;;;;;;1.38;1.30;;;;;;;-0.48;89.85;100580.44;5033087;28;20327;-68
2020/12/03 03:45:35;;;;;;;0.57;0.57;;;;;;;-0.46;90.13;100577.53;5032880;28;20251;-68
2020/12/03 03:48:02;;;;;;;15.93;2.73;;;;;;;-0.41;89.63;100559.03;5032869;28;20628;-68
2020/12/03 03:50:28;;;;;;;2.45;1.42;;;;;;;-0.44;89.84;100549.69;5033123;28;20524;-68
2020/12/03 03:52:54;;;;;;;0.63;0.63;;;;;;;-0.41;89.17;100545.72;5033018;28;20282;-68
2020/12/03 03:55:21;;;;;;;0.98;0.95;;;;;;;-0.38;89.27;100539.97;5033075;28;20787;-68
2020/12/03 03:57:47;;;;;;;1.60;1.20;;;;;;;-0.46;89.33;100540.28;5033071;28;20200;-68
2020/12/03 04:00:16;;;;;;;3.42;3.22;;;;;;;-0.38;89.73;100538.09;5032443;28;20492;-68
2020/12/03 04:02:43;;;;;;;1.50;1.40;;;;;;;-0.37;89.27;100536.25;5032861;28;20220;-68
2020/12/03 04:05:10;;;;;;;2.00;1.90;;;;;;;-0.32;89.10;100536.38;5032570;28;20606;-67
2020/12/03 04:07:36;;;;;;;8.52;1.90;;;;;;;-0.47;89.06;100531.50;5032626;28;20439;-67
2020/12/03 04:10:04;;;;;;;2.75;1.15;;;;;;;-0.45;89.59;100528.59;5032705;28;20728;-67
2020/12/03 04:12:30;;;;;;;3.30;3.20;;;;;;;-0.36;89.97;100521.91;5032816;28;20228;-68
2020/12/03 04:14:59;;;;;;;9.40;1.30;;;;;;;-0.31;89.40;100528.19;5034202;28;20485;-67
2020/12/03 04:17:26;;;;;;;1.75;1.05;;;;;;;-0.26;89.34;100532.81;5032575;28;20451;-67
2020/12/03 04:19:53;;;;;;;1.47;1.37;;;;;;;-0.21;89.25;100532.13;5032817;28;20576;-68
2020/12/03 04:22:19;;;;;;;0.80;0.80;;;;;;;-0.23;89.65;100518.22;5032509;28;21024;-67
2020/12/03 04:24:45;;;;;;;4.65;1.85;;;;;;;-0.16;89.61;100533.03;5032747;28;20522;-67
2020/12/03 04:27:12;;;;;;;4.93;1.47;;;;;;;-0.18;89.17;100527.13;5033056;28;20201;-67
2020/12/03 04:29:38;;;;;;;1.63;1.53;;;;;;;-0.16;89.40;100510.94;5032735;28;20470;-67
2020/12/03 04:32:04;;;;;;;1.20;1.07;;;;;;;-0.11;89.22;100513.72;5033302;28;20512;-67
2020/12/03 04:34:30;;;;;;;0.40;0.40;;;;;;;-0.20;88.89;100515.09;5036429;28;20459;-67
2020/12/03 04:36:57;;;;;;;1.53;1.43;;;;;;;-0.17;89.03;100507.47;5036590;28;20204;-67
2020/12/03 04:39:24;;;;;;;1.97;1.87;;;;;;;-0.21;89.43;100508.97;5036351;28;20439;-67
2020/12/03 04:41:50;;;;;;;3.43;2.57;;;;;;;-0.15;89.33;100513.34;5035973;28;20508;-67
2020/12/03 04:44:20;;;;;;;0.40;0.30;;;;;;;-0.19;88.82;100516.72;5036242;28;20572;-67
2020/12/03 04:47:00;;;;;;;1.30;1.00;;;;;;;-0.19;89.09;100511.38;5035955;28;20994;-67
2020/12/03 04:49:34;;;;;;;0.93;0.87;;;;;;;-0.20;88.80;100510.59;5035944;28;20905;-67
2020/12/03 04:52:23;;;;;;;1.00;0.80;;;;;;;-0.18;89.03;100507.69;5035827;28;20516;-67
2020/12/03 04:54:58;;;;;;;2.90;1.83;;;;;;;-0.21;88.68;100498.31;5035788;28;20888;-67
2020/12/03 04:57:28;;;;;;;0.53;0.50;;;;;;;-0.15;88.93;100507.22;5036324;28;20431;-67
2020/12/03 05:00:00;;;;;;;3.03;2.47;;;;;;;-0.18;87.74;100499.69;5036050;28;20479;-67
2020/12/03 05:02:53;;;;;;;1.27;0.77;;;;;;;-0.16;88.23;100505.63;5035911;28;20494;-68
2020/12/03 05:05:25;;;;;;;0.80;0.80;;;;;;;-0.17;88.35;100494.16;5035821;28;20467;-67
2020/12/03 05:08:00;;;;;;;0.60;0.57;;;;;;;-0.11;88.43;100495.06;5035764;28;20776;-67
2020/12/03 05:10:34;;;;;;;1.03;1.03;;;;;;;-0.09;87.62;100491.16;5035712;28;20478;-68
2020/12/03 05:13:01;;;;;;;4.17;2.03;;;;;;;-0.11;88.45;100490.56;5035697;28;20825;-67
2020/12/03 05:15:31;;;;;;;1.13;1.13;;;;;;;-0.10;88.03;100488.69;5035689;28;20861;-66
2020/12/03 05:18:17;;;;;;;1.85;1.75;;;;;;;-0.12;88.37;100490.81;5035665;28;20509;-67
2020/12/03 05:20:47;;;;;;;1.03;0.80;;;;;;;-0.09;87.88;100485.00;5035331;28;20235;-66
2020/12/03 05:23:17;;;;;;;0.73;0.73;;;;;;;-0.10;87.95;100472.72;5035233;28;20451;-67
2020/12/03 05:25:44;;;;;;;1.35;0.88;;;;;;;-0.16;88.00;100479.00;5035438;28;20518;-67
2020/12/03 05:28:31;;;;;;;1.93;1.83;;;;;;;-0.10;88.38;100481.53;5035500;28;20209;-67
2020/12/03 05:31:07;;;;;;;2.03;1.90;;;;;;;-0.05;88.25;100480.81;5035536;28;20478;-67
2020/12/03 05:33:34;;;;;;;2.10;1.90;;;;;;;0.03;88.18;100474.34;5035160;28;20509;-67
2020/12/03 05:36:00;;;;;;;1.03;0.97;;;;;;;0.05;87.99;100466.94;5035034;28;20439;-67
2020/12/03 05:38:28;;;;;;;1.63;1.53;;;;;;;0.07;87.58;100478.97;5035282;28;20474;-66
2020/12/03 05:40:58;;;;;;;0.88;0.88;;;;;;;0.08;88.32;100480.56;5035258;28;20867;-67
2020/12/03 05:43:24;;;;;;;8.52;3.28;;;;;;;0.01;87.99;100463.13;5034598;28;20220;-67
2020/12/03 05:45:51;;;;;;;1.83;1.73;;;;;;;0.03;88.56;100461.03;5034846;28;20200;-67
2020/12/03 05:48:20;;;;;;;1.30;1.20;;;;;;;0.08;88.00;100456.59;5035072;28;20286;-67
2020/12/03 05:50:46;;;;;;;12.13;2.80;;;;;;;0.08;88.00;100463.78;5035015;28;20852;-67
2020/12/03 05:53:17;;;;;;;2.20;1.90;;;;;;;0.11;87.17;100450.81;5034938;28;20455;-67
2020/12/03 05:55:45;;;;;;;2.10;1.73;;;;;;;0.09;87.40;100447.59;5034953;28;20435;-67
2020/12/03 05:58:20;;;;;;;1.08;0.98;;;;;;;0.09;87.85;100447.59;5034905;28;20512;-68
2020/12/03 06:00:47;;;;;;;0.60;0.60;;;;;;;0.13;88.26;100443.41;5034529;28;20641;-68
2020/12/03 06:03:27;;;;;;;3.30;0.70;;;;;;;0.07;87.96;100443.53;5034734;28;20455;-69
2020/12/03 06:06:21;;;;;;;3.27;1.53;;;;;;;0.14;86.90;100445.03;5034465;28;20416;-69
2020/12/03 06:09:06;;;;;;;1.37;1.33;;;;;;;0.06;85.98;100439.25;5034598;28;20455;-67
2020/12/03 06:11:42;;;;;;;2.37;1.50;;;;;;;-0.01;86.67;100429.53;5034606;28;20995;-67
2020/12/03 06:14:29;;;;;;;0.60;0.60;;;;;;;0.07;86.92;100425.72;5034632;28;20416;-67
2020/12/03 06:17:04;;;;;;;0.95;0.95;;;;;;;0.09;87.17;100428.97;5034653;28;20419;-67
2020/12/03 06:19:46;;;;;;;5.53;4.27;;;;;;;0.16;86.84;100423.47;5034793;28;20234;-67
2020/12/03 06:22:22;;;;;;;2.33;1.23;;;;;;;0.14;87.34;100423.72;5034123;28;20455;-67
2020/12/03 06:25:18;;;;;;;2.57;2.37;;;;;;;0.11;86.84;100426.84;5034371;28;20553;-66
2020/12/03 06:28:00;;;;;;;40.10;2.60;;;;;;;0.13;86.15;100432.75;5034307;28;20439;-67
2020/12/03 06:30:29;;;;;;;3.17;2.90;;;;;;;0.10;86.65;100427.09;5034345;28;20443;-68
2020/12/03 06:33:05;;;;;;;8.90;2.30;;;;;;;0.08;86.58;100431.84;5034175;28;20290;-70
2020/12/03 06:35:42;;;;;;;1.53;1.43;;;;;;;0.07;86.63;100432.88;5033937;28;20427;-70
2020/12/03 06:38:23;;;;;;;1.10;1.00;;;;;;;0.14;86.33;100429.06;5034182;28;20481;-69
2020/12/03 06:40:57;;;;;;;2.00;0.83;;;;;;;0.14;86.17;100420.25;5033985;28;20427;-70
2020/12/03 06:43:32;;;;;;;6.90;3.90;;;;;;;0.13;86.12;100435.41;5033962;28;21054;-69
2020/12/03 06:46:22;;;;;;;19.73;4.30;;;;;;;0.13;85.80;100434.59;5034071;28;20418;-68
2020/12/03 06:49:08;;;;;;;2.83;2.63;;;;;;;0.17;86.00;100439.22;5021257;28;20208;-70
2020/12/03 06:51:54;;;;;;;0.93;0.80;;;;;;;0.20;85.92;100440.59;5028552;28;20471;-70
2020/12/03 06:54:52;;;;;;;1.70;1.60;;;;;;;0.13;85.67;100431.94;5014127;28;20833;-70
2020/12/03 06:58:04;;;;;;;1.37;1.27;;;;;;;0.13;85.59;100435.41;5014147;28;20425;-69
2020/12/03 07:01:17;;;;;;;0.60;0.60;;;;;;;0.15;85.65;100424.53;5014033;28;20428;-69
2020/12/03 07:04:19;;;;;;;8.97;2.10;;;;;;;0.14;85.96;100423.72;4995799;28;20526;-70
2020/12/03 07:07:17;;;;;;;4.90;2.03;;;;;;;0.18;84.37;100422.22;5013686;28;20854;-70
2020/12/03 07:10:07;;;;;;;1.00;1.00;;;;;;;0.23;85.23;100405.53;5001047;28;20562;-70
2020/12/03 07:13:05;;;;;;;3.37;2.70;;;;;;;0.25;85.46;100409.56;5010961;28;20472;-70
2020/12/03 07:15:48;;;;;;;0.73;0.73;;;;;;;0.29;86.11;100401.91;4989523;28;20448;-70
2020/12/03 07:18:47;;;;;;;1.10;0.83;;;;;;;0.35;85.95;100400.94;5013982;28;20193;-70
2020/12/03 07:21:31;;;;;;;0.50;0.43;;;;;;;0.42;85.88;100403.47;5013850;28;20500;-70
2020/12/03 07:24:03;;;;;;;0.90;0.80;;;;;;;0.45;84.98;100397.69;5013866;28;20550;-70
2020/12/03 07:27:02;;;;;;;1.90;1.33;;;;;;;0.47;84.94;100396.38;5013667;28;20428;-71
2020/12/03 07:29:44;;;;;;;3.07;2.87;;;;;;;0.50;84.94;100393.25;5013626;28;20432;-70
2020/12/03 07:32:24;;;;;;;2.43;1.90;;;;;;;0.48;84.46;100394.53;5013224;28;20468;-68
2020/12/03 07:34:59;;;;;;;8.23;2.73;;;;;;;0.44;85.18;100388.03;5013593;28;20419;-68
2020/12/03 07:37:40;;;;;;;1.00;1.00;;;;;;;0.41;85.00;100391.22;5013543;28;20420;-69
2020/12/03 07:40:08;;;;;;;4.33;2.13;;;;;;;0.48;85.00;100392.66;5013266;28;20913;-68
2020/12/03 07:42:34;;;;;;;2.10;2.00;;;;;;;0.50;84.94;100385.25;5013371;28;20510;-69
2020/12/03 07:45:00;;;;;;;5.23;1.30;;;;;;;0.50;84.27;100379.94;5013103;28;20487;-68
2020/12/03 07:47:31;;;;;;;1.87;1.77;;;;;;;0.49;84.50;100378.31;5013553;28;20475;-69
2020/12/03 07:49:59;;;;;;;6.73;2.90;;;;;;;0.52;83.47;100374.34;5013450;28;20433;-68
2020/12/03 07:52:37;;;;;;;2.80;1.77;;;;;;;0.52;84.12;100374.34;5013312;28;20518;-69
2020/12/03 07:55:29;;;;;;;1.50;1.40;;;;;;;0.45;84.24;100369.19;5013435;28;20791;-69
2020/12/03 07:57:57;;;;;;;8.40;1.20;;;;;;;0.42;84.86;100369.66;5013459;28;20436;-69
2020/12/03 08:00:49;;;;;;;5.90;2.30;;;;;;;0.51;84.42;100370.06;5013247;28;21008;-69
2020/12/03 08:03:47;;;;;;;2.07;1.90;;;;;;;0.44;83.78;100366.75;5010168;28;20483;-68
2020/12/03 08:06:18;;;;;;;0.70;0.70;;;;;;;0.46;84.32;100351.34;5013318;28;20440;-69
2020/12/03 08:08:47;;;;;;;3.07;2.70;;;;;;;0.47;83.80;100347.63;5016462;28;20428;-69
2020/12/03 08:11:39;;;;;;;1.67;1.57;;;;;;;0.48;83.57;100341.22;5017195;28;20433;-69
2020/12/03 08:14:29;;;;;;;2.03;1.93;;;;;;;0.50;83.62;100347.94;5008977;28;20956;-68
2020/12/03 08:16:56;;;;;;;3.60;1.00;;;;;;;0.50;83.94;100336.50;5016786;28;20964;-69
2020/12/03 08:19:27;;;;;;;2.43;2.27;;;;;;;0.59;83.70;100340.38;5016661;28;20999;-68
2020/12/03 08:21:53;;;;;;;0.77;0.77;;;;;;;0.67;83.78;100333.84;5016927;28;20531;-69
2020/12/03 08:24:25;;;;;;;1.60;1.50;;;;;;;0.72;83.03;100331.25;5016903;28;20538;-71
2020/12/03 08:26:56;;;;;;;6.13;1.13;;;;;;;0.74;83.22;100329.94;5017163;28;20475;-70
2020/12/03 08:29:46;;;;;;;3.60;2.87;;;;;;;0.78;83.18;100324.94;5016855;28;20475;-66
2020/12/03 08:32:12;;;;;;;3.90;2.47;;;;;;;0.84;82.42;100325.81;4987692;28;20468;-69
2020/12/03 08:34:40;;;;;;;3.70;1.67;;;;;;;0.81;83.26;100321.00;5016423;28;20860;-68
2020/12/03 08:37:10;;;;;;;2.27;2.17;;;;;;;0.92;82.81;100328.91;5016712;28;20494;-69
2020/12/03 08:39:37;;;;;;;3.33;2.27;;;;;;;0.92;82.88;100320.09;5016614;28;20873;-68
2020/12/03 08:42:06;;;;;;;1.23;1.23;;;;;;;0.99;82.95;100331.41;5016440;28;20881;-69
2020/12/03 08:44:33;;;;;;;1.43;1.33;;;;;;;1.02;82.24;100328.25;5016115;28;20487;-72
2020/12/03 08:47:06;;;;;;;1.77;1.30;;;;;;;1.11;82.21;100334.00;5016216;28;20438;-70
2020/12/03 08:49:32;;;;;;;0.70;0.57;;;;;;;1.14;82.04;100328.94;5016135;28;20479;-69
2020/12/03 08:51:59;;;;;;;1.20;1.20;;;;;;;1.18;81.96;100331.94;5016308;28;20487;-70
2020/12/03 08:54:26;;;;;;;10.23;2.63;;;;;;;1.24;82.09;100320.31;5016071;28;20468;-70
2020/12/03 08:56:58;;;;;;;2.50;2.00;;;;;;;1.27;80.65;100315.25;5016338;28;20479;-71
2020/12/03 08:59:30;;;;;;;1.93;1.20;;;;;;;1.23;81.38;100306.13;5016273;28;20514;-70
2020/12/03 09:02:07;;;;;;;1.80;1.70;;;;;;;1.26;81.49;100305.66;5016152;28;20468;-72
2020/12/03 09:04:34;;;;;;;2.00;1.90;;;;;;;1.24;81.24;100307.78;5015738;28;20467;-71
2020/12/03 09:07:04;;;;;;;2.90;2.70;;;;;;;1.19;81.51;100304.22;5016103;28;20532;-70
2020/12/03 09:09:31;;;;;;;0.43;0.40;;;;;;;1.22;81.03;100293.88;5015894;28;20463;-70
2020/12/03 09:11:57;;;;;;;2.40;2.20;;;;;;;1.28;81.10;100297.41;5015949;28;20939;-67
2020/12/03 09:14:26;;;;;;;2.80;2.63;;;;;;;1.28;80.94;100292.06;5015899;28;20440;-68
2020/12/03 09:16:57;;;;;;;1.33;1.33;;;;;;;1.30;80.77;100289.16;5015534;28;20999;-67
2020/12/03 09:19:24;;;;;;;0.40;0.40;;;;;;;1.32;79.95;100287.03;5014732;28;20424;-67
2020/12/03 09:21:51;;;;;;;0.60;0.60;;;;;;;1.24;81.14;100274.97;5016110;28;20514;-67
2020/12/03 09:24:21;;;;;;;0.60;0.50;;;;;;;1.24;80.38;100285.63;5015474;28;21103;-67
2020/12/03 09:26:48;;;;;;;3.13;1.63;;;;;;;1.23;81.17;100289.34;5016048;28;20451;-70
2020/12/03 09:29:14;;;;;;;2.13;1.93;;;;;;;1.24;80.56;100269.63;5015802;28;20450;-72
2020/12/03 09:31:41;;;;;;;1.90;1.80;;;;;;;1.33;80.43;100260.13;5015786;28;20436;-71
2020/12/03 09:34:09;;;;;;;3.30;2.43;;;;;;;1.40;80.94;100267.94;5015636;28;20448;-69
2020/12/03 09:36:37;;;;;;;2.80;1.90;;;;;;;1.42;80.80;100273.84;5015601;28;20444;-71
2020/12/03 09:39:04;;;;;;;3.43;3.13;;;;;;;1.43;80.57;100265.59;5016149;28;20475;-71
2020/12/03 09:41:32;;;;;;;5.53;2.00;;;;;;;1.47;80.43;100252.56;5035188;28;20439;-73
2020/12/03 09:44:04;;;;;;;0.77;0.77;;;;;;;1.49;79.92;100245.91;5034846;28;20451;-70
2020/12/03 09:46:33;;;;;;;3.30;2.00;;;;;;;1.49;80.07;100243.22;5035063;28;20427;-71
2020/12/03 09:49:00;;;;;;;1.47;0.90;;;;;;;1.50;78.36;100238.69;5035374;28;20470;-71
2020/12/03 09:51:27;;;;;;;1.70;1.40;;;;;;;1.52;79.04;100233.94;5034934;28;20921;-71
2020/12/03 09:53:54;;;;;;;17.27;1.90;;;;;;;1.51;79.04;100233.13;5035024;28;20492;-71
2020/12/03 09:56:20;;;;;;;4.13;2.27;;;;;;;1.50;78.69;100225.34;5035014;28;20493;-71
2020/12/03 09:58:56;;;;;;;0.53;0.53;;;;;;;1.57;78.17;100219.84;5034983;28;20500;-71
2020/12/03 10:01:41;;;;;;;0.80;0.80;;;;;;;1.63;78.62;100214.28;5034937;28;20421;-71
2020/12/03 10:04:43;;;;;;;2.40;1.17;;;;;;;1.52;77.98;100215.25;5034818;28;20455;-71
2020/12/03 10:07:23;;;;;;;0.50;0.50;;;;;;;1.51;79.05;100216.31;4999038;28;20451;-71
2020/12/03 10:10:15;;;;;;;1.37;0.90;;;;;;;1.48;78.15;100206.13;5034478;28;20952;-70
2020/12/03 10:12:59;;;;;;;0.50;0.50;;;;;;;1.55;78.55;100205.94;5026501;28;20525;-71
2020/12/03 10:15:56;;;;;;;2.50;2.40;;;;;;;1.56;78.51;100202.22;5034653;28;20426;-70
2020/12/03 10:18:24;;;;;;;0.80;0.80;;;;;;;1.51;78.94;100184.28;5034602;28;20424;-71
2020/12/03 10:20:52;;;;;;;1.93;1.47;;;;;;;1.63;78.80;100184.94;5034438;28;20447;-71
2020/12/03 10:23:34;;;;;;;0.40;0.30;;;;;;;1.71;78.77;100175.69;5034339;28;20466;-71
2020/12/03 10:26:13;;;;;;;0.70;0.70;;;;;;;1.70;78.17;100174.88;5034303;28;20474;-71
2020/12/03 10:28:42;;;;;;;1.00;0.53;;;;;;;1.59;78.16;100159.81;5034321;28;20429;-70
2020/12/03 10:31:11;;;;;;;9.23;3.43;;;;;;;1.61;78.39;100157.69;5033976;28;20470;-70
2020/12/03 10:33:38;;;;;;;0.73;0.73;;;;;;;1.56;76.32;100146.97;5034217;28;20524;-71
2020/12/03 10:36:17;;;;;;;0.50;0.50;;;;;;;1.57;78.49;100145.91;5033933;28;21005;-70
2020/12/03 10:38:47;;;;;;;0.50;0.50;;;;;;;1.69;78.53;100140.44;5034192;28;20426;-70
2020/12/03 10:41:14;;;;;;;1.57;1.47;;;;;;;1.72;78.73;100132.69;5034156;28;20514;-70
2020/12/03 10:43:47;;;;;;;3.77;1.33;;;;;;;1.82;77.99;100131.19;5034080;28;20461;-70
2020/12/03 10:46:21;;;;;;;0.70;0.70;;;;;;;1.85;77.12;100125.34;5033738;28;20521;-73
2020/12/03 10:48:49;;;;;;;1.13;1.03;;;;;;;1.86;77.24;100121.59;5033979;28;20436;-71
2020/12/03 10:51:17;;;;;;;0.90;0.50;;;;;;;1.84;77.26;100115.72;5033984;28;20855;-72
2020/12/03 10:53:47;;;;;;;0.50;0.50;;;;;;;1.68;76.89;100104.94;5034003;28;21088;-71
2020/12/03 10:56:15;;;;;;;2.10;2.00;;;;;;;1.64;77.38;100108.31;5034130;28;20430;-72
2020/12/03 10:58:50;;;;;;;2.27;2.07;;;;;;;1.74;76.89;100108.44;5033732;28;20442;-71
2020/12/03 11:01:21;;;;;;;3.50;1.93;;;;;;;1.74;77.64;100111.91;5033837;28;20427;-71
2020/12/03 11:03:50;;;;;;;1.40;1.30;;;;;;;1.77;77.29;100110.56;5033718;28;20560;-71
2020/12/03 11:06:23;;;;;;;1.50;1.40;;;;;;;1.83;77.23;100100.78;5033622;28;20560;-71
2020/12/03 11:08:50;;;;;;;8.80;3.17;;;;;;;1.87;76.89;100089.31;5033606;28;20460;-71
2020/12/03 11:11:17;;;;;;;1.53;0.63;;;;;;;1.93;77.01;100084.81;5033362;28;20458;-71
2020/12/03 11:13:44;;;;;;;0.50;0.50;;;;;;;1.92;77.15;100083.22;5033487;28;20877;-71
2020/12/03 11:16:12;;;;;;;3.03;0.50;;;;;;;1.98;76.21;100076.84;5033263;28;20435;-71
2020/12/03 11:18:44;;;;;;;1.23;1.13;;;;;;;1.95;76.53;100078.16;5033149;28;20437;-71
2020/12/03 11:21:16;;;;;;;1.70;0.70;;;;;;;1.79;77.17;100073.75;5033699;28;20510;-71
2020/12/03 11:24:02;;;;;;;1.10;1.10;;;;;;;1.90;77.08;100069.28;5033394;28;20466;-71
2020/12/03 11:26:31;;;;;;;0.70;0.67;;;;;;;1.93;77.02;100058.91;5033410;28;20463;-71
2020/12/03 11:29:10;;;;;;;1.13;1.13;;;;;;;1.95;77.17;100048.00;5033373;28;20807;-72
2020/12/03 11:31:36;;;;;;;0.57;0.57;;;;;;;1.94;77.31;100046.34;5032957;28;20889;-72
2020/12/03 11:34:04;;;;;;;0.60;0.47;;;;;;;2.03;77.21;100048.28;5033042;28;20446;-71
2020/12/03 11:36:33;;;;;;;18.33;1.17;;;;;;;1.99;76.19;100041.03;5032955;28;20497;-76
2020/12/03 11:39:00;;;;;;;0.57;0.57;;;;;;;1.98;76.27;100034.91;5033510;28;20446;-71
2020/12/03 11:41:33;;;;;;;3.70;2.27;;;;;;;1.91;77.07;100023.66;5032472;28;20792;-73
2020/12/03 11:44:20;;;;;;;0.80;0.80;;;;;;;1.98;76.91;100024.22;5033566;28;20431;-69
2020/12/03 11:49:35;;;;;;;0.40;0.40;;;;;;;1.92;77.77;100035.16;5033263;28;20903;-72
2020/12/03 11:52:14;;;;;;;1.27;1.17;;;;;;;1.93;76.85;100042.09;5032759;28;21032;-72
2020/12/03 11:54:42;;;;;;;0.90;0.77;;;;;;;1.90;78.17;100042.59;5033406;28;20453;-72